createdAt,value
2017-08-26T00:02:22.510Z,6.30
2017-08-26T00:04:50.036Z,5.50
2017-08-26T00:07:17.545Z,6.13
2017-08-26T00:09:45.044Z,6.20
2017-08-26T00:12:13.332Z,7.13
2017-08-26T00:14:40.832Z,6.17
2017-08-26T00:17:08.353Z,6.10
2017-08-26T00:19:35.938Z,5.50
2017-08-26T00:22:03.477Z,6.53
2017-08-26T00:24:30.985Z,6.00
2017-08-26T00:26:58.529Z,6.27
2017-08-26T00:29:26.032Z,7.23
2017-08-26T00:31:54.315Z,7.17
2017-08-26T00:34:21.856Z,7.23
2017-08-26T00:36:49.355Z,6.80
2017-08-26T00:39:16.872Z,6.67
2017-08-26T00:41:44.405Z,6.70
2017-08-26T00:44:11.914Z,6.60
2017-08-26T00:46:39.461Z,6.77
2017-08-26T00:49:07.743Z,6.10
2017-08-26T00:51:35.240Z,7.17
2017-08-26T00:54:02.761Z,6.30
2017-08-26T00:56:30.256Z,5.70
2017-08-26T00:58:57.798Z,5.33
2017-08-26T01:01:25.317Z,4.80
2017-08-26T01:03:52.839Z,5.20
2017-08-26T01:06:20.379Z,5.80
2017-08-26T01:08:47.906Z,4.97
2017-08-26T01:11:16.165Z,5.53
2017-08-26T01:13:43.691Z,5.87
2017-08-26T01:16:11.192Z,5.67
2017-08-26T01:18:39.473Z,6.60
2017-08-26T01:21:07.000Z,6.20
2017-08-26T01:23:34.513Z,7.10
2017-08-26T01:26:02.062Z,6.50
2017-08-26T01:28:29.574Z,6.40
2017-08-26T01:30:57.067Z,6.70
2017-08-26T01:33:24.606Z,5.73
2017-08-26T01:35:52.192Z,6.77
2017-08-26T01:38:19.702Z,6.83
2017-08-26T01:40:47.246Z,5.97
2017-08-26T01:43:14.749Z,6.53
2017-08-26T01:45:42.270Z,7.50
2017-08-26T01:48:09.814Z,6.53
2017-08-26T01:50:37.325Z,7.30
2017-08-26T01:53:04.845Z,8.33
2017-08-26T01:55:32.372Z,6.30
2017-08-26T01:57:59.876Z,7.23
2017-08-26T02:00:27.395Z,7.73
2017-08-26T02:02:54.934Z,6.73
2017-08-26T02:05:22.442Z,6.63
2017-08-26T02:07:49.963Z,7.53
2017-08-26T02:10:17.533Z,7.97
2017-08-26T02:12:45.027Z,7.30
2017-08-26T02:15:12.529Z,7.17
2017-08-26T02:17:40.070Z,7.50
2017-08-26T02:20:07.590Z,7.60
2017-08-26T02:22:35.090Z,7.20
2017-08-26T02:25:02.634Z,7.77
2017-08-26T02:27:30.134Z,7.47
2017-08-26T02:29:57.635Z,7.00
2017-08-26T02:32:25.178Z,6.70
2017-08-26T02:34:52.691Z,6.63
2017-08-26T02:37:20.210Z,7.43
2017-08-26T02:39:47.766Z,7.90
2017-08-26T02:42:15.277Z,7.37
2017-08-26T02:44:42.780Z,6.67
2017-08-26T02:47:10.318Z,7.27
2017-08-26T02:49:37.807Z,5.93
2017-08-26T02:52:05.306Z,6.90
2017-08-26T02:54:32.867Z,7.70
2017-08-26T02:57:00.442Z,7.47
2017-08-26T02:59:27.953Z,6.53
2017-08-26T03:01:55.476Z,8.00
2017-08-26T03:04:22.967Z,7.00
2017-08-26T03:06:50.469Z,7.70
2017-08-26T03:09:17.995Z,7.90
2017-08-26T03:11:45.507Z,7.57
2017-08-26T03:14:13.010Z,7.50
2017-08-26T03:16:40.540Z,7.70
2017-08-26T03:19:08.052Z,6.50
2017-08-26T03:21:35.552Z,6.63
2017-08-26T03:24:03.076Z,6.20
2017-08-26T03:26:30.594Z,7.93
2017-08-26T03:28:58.110Z,7.00
2017-08-26T03:31:25.649Z,7.33
2017-08-26T03:33:53.166Z,7.10
2017-08-26T03:36:20.686Z,7.10
2017-08-26T03:38:48.227Z,7.10
2017-08-26T03:41:15.749Z,7.53
2017-08-26T03:43:43.251Z,7.50
2017-08-26T03:46:10.800Z,7.70
2017-08-26T03:48:38.304Z,8.27
2017-08-26T03:51:05.819Z,6.90
2017-08-26T03:53:33.405Z,8.57
2017-08-26T03:56:00.923Z,8.10
2017-08-26T03:58:28.437Z,7.80
2017-08-26T04:00:55.983Z,8.17
2017-08-26T04:03:23.491Z,8.50
2017-08-26T04:05:51.755Z,7.87
2017-08-26T04:08:20.174Z,8.00
2017-08-26T04:10:47.694Z,8.30
2017-08-26T04:13:15.982Z,7.67
2017-08-26T04:15:44.286Z,9.00
2017-08-26T04:18:11.798Z,7.93
2017-08-26T04:20:39.302Z,9.10
2017-08-26T04:23:06.846Z,6.73
2017-08-26T04:25:34.349Z,7.67
2017-08-26T04:28:01.857Z,7.77
2017-08-26T04:30:29.388Z,7.30
2017-08-26T04:32:56.891Z,9.00
2017-08-26T04:35:24.388Z,7.50
2017-08-26T04:37:51.936Z,8.23
2017-08-26T04:40:19.446Z,8.90
2017-08-26T04:42:46.953Z,8.27
2017-08-26T04:45:14.498Z,8.40
2017-08-26T04:47:42.018Z,7.90
2017-08-26T04:50:09.538Z,7.43
2017-08-26T04:52:37.067Z,7.10
2017-08-26T04:55:04.564Z,7.60
2017-08-26T04:57:32.082Z,8.03
2017-08-26T04:59:59.621Z,7.00
2017-08-26T05:02:27.143Z,7.83
2017-08-26T05:04:54.644Z,7.23
2017-08-26T05:07:22.182Z,8.10
2017-08-26T05:09:49.683Z,8.50
2017-08-26T05:12:17.194Z,7.57
2017-08-26T05:14:44.797Z,8.03
2017-08-26T05:17:12.300Z,7.63
2017-08-26T05:19:39.801Z,8.70
2017-08-26T05:22:07.328Z,8.67
2017-08-26T05:24:34.848Z,7.57
2017-08-26T05:27:02.354Z,8.20
2017-08-26T05:29:29.959Z,9.70
2017-08-26T05:31:57.489Z,9.63
2017-08-26T05:34:25.016Z,8.57
2017-08-26T05:36:52.527Z,9.00
2017-08-26T05:39:20.045Z,9.03
2017-08-26T05:41:47.590Z,8.47
2017-08-26T05:44:15.214Z,8.73
2017-08-26T05:46:42.734Z,9.10
2017-08-26T05:49:10.260Z,9.13
2017-08-26T05:51:37.775Z,9.30
2017-08-26T05:54:05.492Z,9.47
2017-08-26T05:56:33.019Z,7.90
2017-08-26T05:59:00.521Z,8.27
2017-08-26T06:01:28.021Z,7.67
2017-08-26T06:03:55.567Z,8.30
2017-08-26T06:06:23.071Z,8.60
2017-08-26T06:08:50.598Z,8.00
2017-08-26T06:11:18.151Z,8.40
2017-08-26T06:13:45.657Z,8.17
2017-08-26T06:16:13.165Z,8.77
2017-08-26T06:18:40.705Z,8.87
2017-08-26T06:21:08.204Z,8.00
2017-08-26T06:23:35.792Z,8.27
2017-08-26T06:26:03.334Z,8.93
2017-08-26T06:28:30.850Z,8.77
2017-08-26T06:30:58.361Z,8.57
2017-08-26T06:33:25.888Z,9.83
2017-08-26T06:35:53.483Z,8.50
2017-08-26T06:38:20.989Z,9.67
2017-08-26T06:40:48.600Z,8.73
2017-08-26T06:43:16.119Z,8.93
2017-08-26T06:45:44.398Z,9.43
2017-08-26T06:48:12.816Z,8.47
2017-08-26T06:50:40.317Z,8.20
2017-08-26T06:53:07.815Z,9.23
2017-08-26T06:55:35.363Z,8.90
2017-08-26T06:58:02.864Z,9.43
2017-08-26T07:00:30.369Z,9.43
2017-08-26T07:02:57.919Z,8.80
2017-08-26T07:05:25.421Z,9.73
2017-08-26T07:07:52.919Z,8.37
2017-08-26T07:10:20.475Z,9.23
2017-08-26T07:12:47.990Z,8.47
2017-08-26T07:15:15.510Z,9.60
2017-08-26T07:17:43.041Z,9.80
2017-08-26T07:20:10.551Z,8.20
2017-08-26T07:22:38.054Z,8.47
2017-08-26T07:25:05.585Z,8.03
2017-08-26T07:27:33.871Z,7.93
2017-08-26T07:30:01.382Z,8.20
2017-08-26T07:32:28.908Z,8.90
2017-08-26T07:34:56.408Z,8.73
2017-08-26T07:37:23.931Z,8.90
2017-08-26T07:39:51.450Z,7.83
2017-08-26T07:42:18.963Z,6.80
2017-08-26T07:44:46.514Z,8.00
2017-08-26T07:47:14.133Z,6.93
2017-08-26T07:49:41.640Z,6.40
2017-08-26T07:52:09.172Z,7.07
2017-08-26T07:54:36.690Z,6.27
2017-08-26T07:57:04.222Z,5.70
2017-08-26T07:59:31.774Z,5.80
2017-08-26T08:01:59.301Z,5.80
2017-08-26T08:04:26.808Z,5.77
2017-08-26T08:06:54.350Z,5.00
2017-08-26T08:09:22.684Z,5.20
2017-08-26T08:11:50.201Z,5.40
2017-08-26T08:14:17.733Z,5.10
2017-08-26T08:16:45.251Z,4.53
2017-08-26T08:19:12.761Z,4.97
2017-08-26T08:21:40.369Z,5.43
2017-08-26T08:24:07.882Z,4.20
2017-08-26T08:26:35.396Z,5.60
2017-08-26T08:29:02.930Z,4.10
2017-08-26T08:31:30.437Z,4.23
2017-08-26T08:33:57.932Z,4.70
2017-08-26T08:36:25.479Z,4.33
2017-08-26T08:38:53.081Z,3.33
2017-08-26T08:41:20.579Z,3.80
2017-08-26T08:43:48.198Z,3.77
2017-08-26T08:46:15.700Z,3.60
2017-08-26T08:48:43.200Z,4.23
2017-08-26T08:51:10.723Z,4.07
2017-08-26T08:53:38.234Z,4.50
2017-08-26T08:56:05.743Z,5.13
2017-08-26T08:58:33.273Z,3.70
2017-08-26T09:01:00.803Z,4.90
2017-08-26T09:03:28.305Z,4.00
2017-08-26T09:05:55.829Z,3.93
2017-08-26T09:08:23.319Z,4.17
2017-08-26T09:10:50.835Z,4.23
2017-08-26T09:13:18.354Z,4.00
2017-08-26T09:15:45.856Z,5.20
2017-08-26T09:18:13.365Z,4.23
2017-08-26T09:20:40.915Z,4.83
2017-08-26T09:23:08.415Z,4.33
2017-08-26T09:25:35.956Z,4.60
2017-08-26T09:28:03.502Z,5.23
2017-08-26T09:30:31.034Z,4.53
2017-08-26T09:32:58.532Z,5.13
2017-08-26T09:35:26.820Z,4.70
2017-08-26T09:37:54.388Z,4.10
2017-08-26T09:40:21.911Z,4.77
2017-08-26T09:42:49.427Z,5.20
2017-08-26T09:45:16.942Z,4.90
2017-08-26T09:47:44.463Z,5.53
2017-08-26T09:50:11.964Z,4.47
2017-08-26T09:52:39.482Z,5.67
2017-08-26T09:55:07.022Z,6.27
2017-08-26T09:57:34.523Z,6.13
2017-08-26T10:00:02.034Z,5.50
2017-08-26T10:02:29.569Z,5.77
2017-08-26T10:04:57.085Z,6.60
2017-08-26T10:07:24.584Z,6.20
2017-08-26T10:09:52.154Z,5.60
2017-08-26T10:12:19.647Z,5.83
2017-08-26T10:14:47.170Z,4.67
2017-08-26T10:17:14.712Z,5.03
2017-08-26T10:19:42.212Z,4.97
2017-08-26T10:22:10.498Z,6.10
2017-08-26T10:24:38.039Z,4.83
2017-08-26T10:27:05.549Z,6.90
2017-08-26T10:29:33.048Z,6.03
2017-08-26T10:32:00.595Z,5.10
2017-08-26T10:34:28.096Z,5.97
2017-08-26T10:36:55.606Z,6.10
2017-08-26T10:39:23.129Z,6.30
2017-08-26T10:41:50.630Z,6.17
2017-08-26T10:44:18.155Z,5.47
2017-08-26T10:46:46.446Z,6.10
2017-08-26T10:49:13.962Z,5.90
2017-08-26T10:51:41.459Z,5.93
2017-08-26T10:54:09.026Z,6.30
2017-08-26T10:56:36.529Z,6.20
2017-08-26T10:59:04.060Z,5.70
2017-08-26T11:01:31.596Z,5.97
2017-08-26T11:03:59.087Z,5.70
2017-08-26T11:06:26.638Z,6.37
2017-08-26T11:08:54.173Z,6.60
2017-08-26T11:11:21.694Z,6.37
2017-08-26T11:13:49.196Z,5.90
2017-08-26T11:16:16.734Z,7.73
2017-08-26T11:18:44.250Z,6.20
2017-08-26T11:21:11.762Z,6.80
2017-08-26T11:23:39.676Z,6.87
2017-08-26T11:26:07.167Z,6.00
2017-08-26T11:28:35.447Z,6.70
2017-08-26T11:31:03.742Z,6.43
2017-08-26T11:33:31.252Z,6.30
2017-08-26T11:35:58.775Z,6.90
2017-08-26T11:38:26.303Z,6.20
2017-08-26T11:40:53.892Z,6.70
2017-08-26T11:43:21.391Z,5.77
2017-08-26T11:45:48.930Z,6.33
2017-08-26T11:48:16.462Z,6.60
2017-08-26T11:50:43.989Z,5.50
2017-08-26T11:53:11.589Z,6.33
2017-08-26T11:55:39.110Z,6.20
2017-08-26T11:58:06.606Z,6.83
2017-08-26T12:00:34.150Z,6.00
2017-08-26T12:03:01.667Z,6.30
2017-08-26T12:05:29.167Z,6.30
2017-08-26T12:07:56.754Z,6.40
2017-08-26T12:10:24.262Z,5.80
2017-08-26T12:12:51.857Z,6.57
2017-08-26T12:15:19.412Z,6.27
2017-08-26T12:17:46.921Z,5.53
2017-08-26T12:20:14.438Z,7.47
2017-08-26T12:22:41.986Z,6.80
2017-08-26T12:25:09.479Z,6.23
2017-08-26T12:27:37.340Z,6.97
2017-08-26T12:30:04.882Z,6.60
2017-08-26T12:32:32.380Z,7.00
2017-08-26T12:34:59.903Z,7.17
2017-08-26T12:37:27.424Z,5.97
2017-08-26T12:39:54.924Z,6.10
2017-08-26T12:42:22.441Z,6.40
2017-08-26T12:44:49.990Z,6.30
2017-08-26T12:47:17.506Z,6.40
2017-08-26T12:49:45.003Z,8.60
2017-08-26T12:52:13.314Z,7.20
2017-08-26T12:54:40.820Z,7.77
2017-08-26T12:57:08.331Z,7.87
2017-08-26T12:59:35.887Z,6.67
2017-08-26T13:02:03.411Z,7.83
2017-08-26T13:04:30.912Z,6.37
2017-08-26T13:06:58.440Z,7.13
2017-08-26T13:09:25.940Z,8.07
2017-08-26T13:11:53.455Z,7.90
2017-08-26T13:14:20.994Z,7.57
2017-08-26T13:16:48.600Z,7.17
2017-08-26T13:19:16.095Z,6.80
2017-08-26T13:21:43.628Z,7.37
2017-08-26T13:24:11.790Z,7.83
2017-08-26T13:26:40.130Z,7.80
2017-08-26T13:29:08.135Z,7.20
2017-08-26T13:31:35.819Z,7.53
2017-08-26T13:34:03.329Z,6.90
2017-08-26T13:36:30.865Z,6.63
2017-08-26T13:38:58.386Z,7.57
2017-08-26T13:41:25.935Z,7.40
2017-08-26T13:43:53.467Z,7.53
2017-08-26T13:46:20.995Z,8.00
2017-08-26T13:48:48.501Z,7.90
2017-08-26T13:51:16.049Z,8.70
2017-08-26T13:53:43.571Z,9.43
2017-08-26T13:56:11.094Z,9.43
2017-08-26T13:58:39.439Z,8.13
2017-08-26T14:01:06.958Z,10.13
2017-08-26T14:03:35.228Z,8.80
2017-08-26T14:06:02.782Z,9.70
2017-08-26T14:08:30.285Z,11.00
2017-08-26T14:10:57.800Z,9.70
2017-08-26T14:13:25.327Z,9.43
2017-08-26T14:15:52.828Z,10.00
2017-08-26T14:18:20.346Z,9.70
2017-08-26T14:20:47.910Z,10.17
2017-08-26T14:23:15.412Z,9.43
2017-08-26T14:25:43.008Z,10.00
2017-08-26T14:28:10.571Z,11.10
2017-08-26T14:30:38.224Z,10.57
2017-08-26T14:33:05.754Z,10.60
2017-08-26T14:35:33.368Z,10.40
2017-08-26T14:38:00.887Z,9.60
2017-08-26T14:40:28.490Z,11.33
2017-08-26T14:42:56.019Z,11.07
2017-08-26T14:45:23.543Z,9.80
2017-08-26T14:47:51.296Z,8.97
2017-08-26T14:50:18.829Z,10.00
2017-08-26T14:52:46.331Z,9.33
2017-08-26T14:55:14.616Z,10.43
2017-08-26T14:57:42.174Z,9.73
2017-08-26T15:00:10.432Z,8.37
2017-08-26T15:02:37.958Z,9.67
2017-08-26T15:05:05.504Z,9.47
2017-08-26T15:07:33.008Z,9.17
2017-08-26T15:10:00.512Z,8.27
2017-08-26T15:12:28.048Z,10.50
2017-08-26T15:14:55.550Z,8.03
2017-08-26T15:17:23.183Z,10.53
2017-08-26T15:19:50.758Z,10.60
2017-08-26T15:22:18.285Z,8.50
2017-08-26T15:24:46.555Z,9.00
2017-08-26T15:27:14.101Z,9.47
2017-08-26T15:29:41.614Z,9.57
2017-08-26T15:32:09.128Z,8.60
2017-08-26T15:34:37.443Z,9.70
2017-08-26T15:37:05.061Z,10.43
2017-08-26T15:39:32.560Z,9.70
2017-08-26T15:42:00.110Z,11.97
2017-08-26T15:44:27.611Z,11.47
2017-08-26T15:46:55.112Z,11.60
2017-08-26T15:49:22.665Z,11.70
2017-08-26T15:51:50.187Z,12.50
2017-08-26T15:54:17.712Z,13.43
2017-08-26T15:56:45.244Z,12.43
2017-08-26T15:59:12.747Z,14.60
2017-08-26T16:01:40.256Z,12.60
2017-08-26T16:04:08.574Z,13.10
2017-08-26T16:06:36.093Z,12.60
2017-08-26T16:09:03.601Z,15.30
2017-08-26T16:11:31.142Z,12.20
2017-08-26T16:13:58.658Z,14.00
2017-08-26T16:16:26.160Z,14.53
2017-08-26T16:18:53.820Z,14.07
2017-08-26T16:21:21.332Z,13.60
2017-08-26T16:23:48.945Z,12.10
2017-08-26T16:26:16.480Z,12.17
2017-08-26T16:28:44.018Z,12.60
2017-08-26T16:31:12.288Z,13.77
2017-08-26T16:33:39.855Z,12.70
2017-08-26T16:36:07.355Z,14.37
2017-08-26T16:38:34.892Z,16.20
2017-08-26T16:41:02.450Z,17.17
2017-08-26T16:43:29.967Z,15.93
2017-08-26T16:45:57.487Z,20.17
2017-08-26T16:48:25.034Z,18.40
2017-08-26T16:50:52.536Z,19.33
2017-08-26T16:53:20.044Z,20.53
2017-08-26T16:55:47.613Z,21.40
2017-08-26T16:58:15.130Z,23.30
2017-08-26T17:00:42.657Z,22.90
2017-08-26T17:03:10.191Z,24.37
2017-08-26T17:05:37.692Z,23.47
2017-08-26T17:08:05.207Z,23.37
2017-08-26T17:10:32.736Z,25.00
2017-08-26T17:13:01.018Z,24.57
2017-08-26T17:15:28.542Z,25.30
2017-08-26T17:17:56.169Z,27.40
2017-08-26T17:20:23.688Z,27.67
2017-08-26T17:22:51.223Z,23.33
2017-08-26T17:25:18.755Z,25.90
2017-08-26T17:27:46.264Z,25.67
2017-08-26T17:30:13.772Z,25.20
2017-08-26T17:32:41.304Z,25.50
2017-08-26T17:35:08.875Z,25.43
2017-08-26T17:37:36.381Z,24.93
2017-08-26T17:40:03.927Z,25.80
2017-08-26T17:42:31.450Z,22.20
2017-08-26T17:44:59.004Z,26.83
2017-08-26T17:47:26.527Z,26.00
2017-08-26T17:49:54.805Z,24.07
2017-08-26T17:52:22.358Z,24.10
2017-08-26T17:54:49.879Z,25.50
2017-08-26T17:57:17.430Z,24.50
2017-08-26T17:59:44.975Z,24.80
2017-08-26T18:02:12.496Z,26.50
2017-08-26T18:04:40.791Z,28.33
2017-08-26T18:07:08.310Z,28.80
2017-08-26T18:09:35.859Z,26.57
2017-08-26T18:12:03.359Z,27.50
2017-08-26T18:14:31.636Z,25.23
2017-08-26T18:16:59.223Z,26.97
2017-08-26T18:19:26.723Z,25.97
2017-08-26T18:21:54.237Z,22.80
2017-08-26T18:24:21.774Z,24.50
2017-08-26T18:26:49.305Z,23.43
2017-08-26T18:29:16.837Z,22.00
2017-08-26T18:31:44.867Z,22.33
2017-08-26T18:34:12.367Z,22.00
2017-08-26T18:36:39.906Z,21.63
2017-08-26T18:39:07.408Z,23.80
2017-08-26T18:41:34.966Z,24.23
2017-08-26T18:44:02.473Z,22.77
2017-08-26T18:46:29.990Z,22.67
2017-08-26T18:48:57.511Z,23.07
2017-08-26T18:51:25.012Z,22.77
2017-08-26T18:53:52.553Z,23.17
2017-08-26T18:56:20.074Z,23.20
2017-08-26T18:58:47.623Z,24.53
2017-08-26T19:01:15.138Z,24.40
2017-08-26T19:03:42.682Z,22.90
2017-08-26T19:06:10.202Z,24.97
2017-08-26T19:08:37.713Z,23.73
2017-08-26T19:11:05.235Z,22.00
2017-08-26T19:13:32.740Z,22.60
2017-08-26T19:16:00.290Z,24.73
2017-08-26T19:18:27.802Z,24.30
2017-08-26T19:20:55.321Z,24.47
2017-08-26T19:23:22.844Z,26.30
2017-08-26T19:25:50.368Z,23.73
2017-08-26T19:28:17.903Z,23.57
2017-08-26T19:30:45.426Z,23.70
2017-08-26T19:33:12.946Z,24.60
2017-08-26T19:35:40.505Z,24.17
2017-08-26T19:38:08.062Z,26.80
2017-08-26T19:40:35.582Z,29.60
2017-08-26T19:43:03.896Z,29.13
2017-08-26T19:45:31.422Z,30.17
2017-08-26T19:47:58.963Z,31.07
2017-08-26T19:50:26.573Z,30.10
2017-08-26T19:52:54.102Z,31.90
2017-08-26T19:55:21.692Z,32.47
2017-08-26T19:57:49.251Z,31.27
2017-08-26T20:00:16.752Z,30.23
2017-08-26T20:02:44.305Z,34.20
2017-08-26T20:05:11.812Z,31.00
2017-08-26T20:07:39.328Z,32.20
2017-08-26T20:10:06.874Z,32.17
2017-08-26T20:12:34.502Z,31.97
2017-08-26T20:15:02.018Z,30.83
2017-08-26T20:17:29.565Z,33.70
2017-08-26T20:19:57.064Z,31.40
2017-08-26T20:22:24.585Z,32.93
2017-08-26T20:24:52.195Z,35.00
2017-08-26T20:27:19.695Z,32.00
2017-08-26T20:29:47.314Z,34.57
2017-08-26T20:32:14.847Z,35.40
2017-08-26T20:34:42.351Z,35.37
2017-08-26T20:37:09.876Z,38.00
2017-08-26T20:39:37.398Z,38.07
2017-08-26T20:42:05.011Z,38.80
2017-08-26T20:44:32.516Z,39.93
2017-08-26T20:47:00.130Z,39.03
2017-08-26T20:49:27.641Z,42.57
2017-08-26T20:51:55.144Z,39.70
2017-08-26T20:54:22.683Z,39.37
2017-08-26T20:56:50.202Z,40.33
2017-08-26T20:59:17.749Z,40.50
2017-08-26T21:01:45.252Z,37.70
2017-08-26T21:04:12.839Z,39.27
2017-08-26T21:06:40.359Z,40.47
2017-08-26T21:09:07.864Z,37.30
2017-08-26T21:11:35.394Z,37.00
2017-08-26T21:14:02.892Z,39.83
2017-08-26T21:16:30.428Z,37.57
2017-08-26T21:18:57.952Z,37.50
2017-08-26T21:21:25.548Z,35.90
2017-08-26T21:23:53.094Z,35.80
2017-08-26T21:26:20.610Z,39.50
2017-08-26T21:28:48.142Z,37.10
2017-08-26T21:31:15.677Z,35.20
2017-08-26T21:33:43.194Z,33.93
2017-08-26T21:36:10.729Z,37.70
2017-08-26T21:38:38.250Z,34.97
2017-08-26T21:41:05.779Z,33.40
2017-08-26T21:43:33.280Z,33.97
2017-08-26T21:46:00.779Z,32.40
2017-08-26T21:48:28.304Z,35.37
2017-08-26T21:50:55.807Z,34.17
2017-08-26T21:53:23.356Z,32.00
2017-08-26T21:55:50.863Z,30.97
2017-08-26T21:58:18.364Z,30.17
2017-08-26T22:00:45.911Z,31.80
2017-08-26T22:03:13.430Z,30.70
2017-08-26T22:05:40.974Z,29.87
2017-08-26T22:08:08.475Z,32.97
2017-08-26T22:10:35.976Z,31.27
2017-08-26T22:13:03.530Z,31.43
2017-08-26T22:15:31.036Z,31.60
2017-08-26T22:17:58.693Z,30.47
2017-08-26T22:20:26.230Z,29.00
2017-08-26T22:22:53.732Z,29.40
2017-08-26T22:25:21.278Z,28.60
2017-08-26T22:27:48.798Z,30.70
2017-08-26T22:30:16.386Z,28.30
2017-08-26T22:32:44.703Z,32.30
2017-08-26T22:35:12.203Z,28.20
2017-08-26T22:37:39.762Z,31.10
2017-08-26T22:40:07.287Z,30.70
2017-08-26T22:42:34.899Z,27.10
2017-08-26T22:45:02.432Z,28.70
2017-08-26T22:47:30.714Z,30.23
2017-08-26T22:49:58.259Z,30.33
2017-08-26T22:52:25.768Z,28.80
2017-08-26T22:54:53.310Z,30.00
2017-08-26T22:57:20.816Z,27.80
2017-08-26T22:59:48.341Z,30.03
2017-08-26T23:02:15.867Z,29.77
2017-08-26T23:04:43.410Z,29.33
2017-08-26T23:07:10.912Z,27.10
2017-08-26T23:09:38.430Z,28.70
2017-08-26T23:12:05.964Z,28.40
2017-08-26T23:14:33.482Z,28.77
2017-08-26T23:17:00.999Z,27.50
2017-08-26T23:19:28.528Z,27.33
2017-08-26T23:21:56.028Z,27.07
2017-08-26T23:24:23.531Z,26.83
2017-08-26T23:26:51.051Z,27.53
2017-08-26T23:29:18.570Z,26.07
2017-08-26T23:31:46.097Z,27.93
2017-08-26T23:34:13.604Z,26.67
2017-08-26T23:36:41.136Z,24.53
2017-08-26T23:39:08.778Z,25.43
2017-08-26T23:41:36.284Z,28.23
2017-08-26T23:44:03.835Z,26.43
2017-08-26T23:46:32.152Z,24.90
2017-08-26T23:48:59.670Z,25.17
2017-08-26T23:51:27.977Z,26.40
2017-08-26T23:53:55.498Z,26.67
2017-08-26T23:56:23.028Z,27.07
2017-08-26T23:58:50.536Z,27.30
